createdAt,value
2023-05-10T00:00:02.048Z,25.38867
2023-05-10T00:00:32.052Z,25.26855
2023-05-10T00:01:02.056Z,25.31055
2023-05-10T00:01:32.054Z,25.95313
2023-05-10T00:02:02.134Z,25.64844
2023-05-10T00:02:32.259Z,25.55176
2023-05-10T00:03:02.146Z,25.65234
2023-05-10T00:03:32.140Z,25.21777
2023-05-10T00:04:02.201Z,25.22949
2023-05-10T00:04:32.049Z,25.49219
2023-05-10T00:05:02.055Z,25.56934
2023-05-10T00:05:32.050Z,25.54883
2023-05-10T00:06:02.059Z,25.56934
2023-05-10T00:06:32.050Z,25.82813
2023-05-10T00:07:02.050Z,26.04492
2023-05-10T00:07:32.054Z,25.19434
2023-05-10T00:08:02.061Z,25.45703
2023-05-10T00:08:32.055Z,25.19336
2023-05-10T00:09:02.053Z,25.31055
2023-05-10T00:09:32.061Z,25.44043
2023-05-10T00:10:02.056Z,25.91895
2023-05-10T00:10:32.061Z,25.63477
2023-05-10T00:11:02.048Z,25.46094
2023-05-10T00:11:32.054Z,25.24512
2023-05-10T00:12:02.056Z,25.07422
2023-05-10T00:12:32.053Z,25.23926
2023-05-10T00:13:02.073Z,25.54297
2023-05-10T00:13:32.141Z,25.92188
2023-05-10T00:14:02.062Z,25.84375
2023-05-10T00:14:32.052Z,25.82129
2023-05-10T00:15:02.056Z,25.30859
2023-05-10T00:15:32.059Z,25.28711
2023-05-10T00:16:02.113Z,25.375
2023-05-10T00:16:32.229Z,25.4082
2023-05-10T00:17:02.124Z,25.52734
2023-05-10T00:17:32.079Z,25.89453
2023-05-10T00:18:02.121Z,25.37988
2023-05-10T00:18:32.087Z,25.55371
2023-05-10T00:19:02.062Z,25.23535
2023-05-10T00:19:32.064Z,25.45508
2023-05-10T00:20:02.057Z,25.55566
2023-05-10T00:20:32.058Z,25.24316
2023-05-10T00:21:02.069Z,24.97363
2023-05-10T00:21:32.060Z,24.97461
2023-05-10T00:22:02.068Z,25.14063
2023-05-10T00:22:32.057Z,25.49023
2023-05-10T00:23:02.055Z,25.22656
2023-05-10T00:23:32.056Z,25.62598
2023-05-10T00:24:02.111Z,25.78613
2023-05-10T00:24:32.061Z,26.04883
2023-05-10T00:25:02.082Z,25.625
2023-05-10T00:25:32.066Z,25.36328
2023-05-10T00:26:02.063Z,25.26465
2023-05-10T00:26:32.056Z,25.16699
2023-05-10T00:27:02.057Z,25.39648
2023-05-10T00:27:32.069Z,25.51563
2023-05-10T00:28:02.059Z,25.67773
2023-05-10T00:28:32.063Z,25.21973
2023-05-10T00:29:02.063Z,25.40527
2023-05-10T00:29:32.055Z,25.67676
2023-05-10T00:30:02.069Z,25.74121
2023-05-10T00:30:32.062Z,25.55273
2023-05-10T00:31:02.064Z,25.74902
2023-05-10T00:31:32.084Z,25.80469
2023-05-10T00:32:02.091Z,25.75098
2023-05-10T00:32:32.241Z,25.30371
2023-05-10T00:33:02.140Z,25.86914
2023-05-10T00:33:32.057Z,25.86523
2023-05-10T00:34:02.060Z,25.79688
2023-05-10T00:34:32.065Z,25.9043
2023-05-10T00:35:02.061Z,26.33008
2023-05-10T00:35:32.060Z,25.44824
2023-05-10T00:36:02.055Z,25.46973
2023-05-10T00:36:32.064Z,25.87012
2023-05-10T00:37:02.059Z,26.11914
2023-05-10T00:37:32.079Z,25.72559
2023-05-10T00:38:02.070Z,25.38867
2023-05-10T00:38:32.061Z,25.36816
2023-05-10T00:39:02.065Z,25.31641
2023-05-10T00:39:32.061Z,25.65625
2023-05-10T00:40:02.062Z,25.46094
2023-05-10T00:40:32.060Z,25.66895
2023-05-10T00:41:02.075Z,25.60254
2023-05-10T00:41:32.061Z,25.78711
2023-05-10T00:42:02.062Z,25.67871
2023-05-10T00:42:32.084Z,25.67871
2023-05-10T00:43:02.067Z,25.85254
2023-05-10T00:43:32.064Z,26.38281
2023-05-10T00:44:02.072Z,26.71777
2023-05-10T00:44:32.064Z,26.32422
2023-05-10T00:45:02.067Z,26.17285
2023-05-10T00:45:32.066Z,26.00879
2023-05-10T00:46:02.076Z,25.66016
2023-05-10T00:46:32.116Z,26.03906
2023-05-10T00:47:02.081Z,26.26465
2023-05-10T00:47:32.088Z,26.27441
2023-05-10T00:48:02.105Z,26.31641
2023-05-10T00:48:32.076Z,25.96191
2023-05-10T00:49:02.068Z,25.6377
2023-05-10T00:49:32.060Z,25.97559
2023-05-10T00:50:02.061Z,26.33496
2023-05-10T00:50:32.076Z,26.22656
2023-05-10T00:51:02.072Z,25.95605
2023-05-10T00:51:32.067Z,25.93652
2023-05-10T00:52:02.073Z,25.75098
2023-05-10T00:52:32.062Z,26.07617
2023-05-10T00:53:02.060Z,26.18262
2023-05-10T00:53:32.061Z,26.12793
2023-05-10T00:54:02.059Z,26.06152
2023-05-10T00:54:32.080Z,26.2793
2023-05-10T00:55:02.062Z,26.10352
2023-05-10T00:55:32.068Z,26.24609
2023-05-10T00:56:02.067Z,26.06152
2023-05-10T00:56:32.066Z,26.01758
2023-05-10T00:57:02.070Z,26.33496
2023-05-10T00:57:32.065Z,25.92188
2023-05-10T00:58:02.063Z,25.80176
2023-05-10T00:58:32.067Z,26.13867
2023-05-10T00:59:02.065Z,26.5957
2023-05-10T00:59:32.062Z,25.98438
2023-05-10T01:00:02.062Z,26.50684
2023-05-10T01:00:32.068Z,26.47168
2023-05-10T01:01:02.086Z,26.30664
2023-05-10T01:01:32.081Z,26.24219
2023-05-10T01:02:02.130Z,26.82227
2023-05-10T01:02:32.166Z,25.8125
2023-05-10T01:03:02.195Z,25.50977
2023-05-10T01:03:32.125Z,25.66113
2023-05-10T01:04:02.060Z,25.99707
2023-05-10T01:04:32.124Z,26.04004
2023-05-10T01:05:02.102Z,26.08398
2023-05-10T01:05:32.069Z,25.24609
2023-05-10T01:06:02.067Z,25.65039
2023-05-10T01:06:32.067Z,25.71582
2023-05-10T01:07:02.066Z,25.71777
2023-05-10T01:07:32.070Z,25.49023
2023-05-10T01:08:02.071Z,25.52344
2023-05-10T01:08:32.067Z,26.00195
2023-05-10T01:09:02.072Z,25.85938
2023-05-10T01:09:32.067Z,25.94531
2023-05-10T01:10:02.071Z,26.08301
2023-05-10T01:10:32.077Z,26.35547
2023-05-10T01:11:02.067Z,26.06152
2023-05-10T01:11:32.073Z,25.75977
2023-05-10T01:12:02.093Z,25.89355
2023-05-10T01:12:32.078Z,25.63281
2023-05-10T01:13:02.108Z,25.86328
2023-05-10T01:13:32.111Z,25.90723
2023-05-10T01:14:02.087Z,25.55859
2023-05-10T01:14:32.081Z,25.90527
2023-05-10T01:15:02.119Z,26.24121
2023-05-10T01:15:32.085Z,26.39453
2023-05-10T01:16:02.140Z,26.14258
2023-05-10T01:16:32.108Z,25.97754
2023-05-10T01:17:02.082Z,26.3877
2023-05-10T01:17:32.172Z,26.65723
2023-05-10T01:18:02.131Z,26.55566
2023-05-10T01:18:32.074Z,26.41211
2023-05-10T01:19:02.079Z,25.64258
2023-05-10T01:19:32.070Z,26.53906
2023-05-10T01:20:02.072Z,25.96582
2023-05-10T01:20:32.072Z,25.58594
2023-05-10T01:21:02.087Z,26.16211
2023-05-10T01:21:32.076Z,26.38867
2023-05-10T01:22:02.104Z,26.09375
2023-05-10T01:22:32.075Z,25.79102
2023-05-10T01:23:02.089Z,25.49805
2023-05-10T01:23:32.090Z,26.09082
2023-05-10T01:24:02.084Z,25.72168
2023-05-10T01:24:32.102Z,25.76758
2023-05-10T01:25:02.077Z,25.69238
2023-05-10T01:25:32.071Z,25.66211
2023-05-10T01:26:02.074Z,25.78125
2023-05-10T01:26:32.079Z,25.59766
2023-05-10T01:27:02.091Z,25.4248
2023-05-10T01:27:32.091Z,25.61133
2023-05-10T01:28:02.084Z,25.2959
2023-05-10T01:28:32.080Z,25.49121
2023-05-10T01:29:02.082Z,26.04199
2023-05-10T01:29:32.082Z,26.33301
2023-05-10T01:30:14.839Z,25.94043
2023-05-10T01:30:33.132Z,26.00781
2023-05-10T01:31:02.122Z,26.0293
2023-05-10T01:31:32.094Z,26.08105
2023-05-10T01:32:02.079Z,25.74121
2023-05-10T01:32:32.102Z,25.97852
2023-05-10T01:33:02.146Z,25.71777
2023-05-10T01:33:32.079Z,25.08887
2023-05-10T01:34:02.078Z,25.35449
2023-05-10T01:34:32.080Z,25.3252
2023-05-10T01:35:02.093Z,25.92578
2023-05-10T01:35:32.075Z,25.8623
2023-05-10T01:36:02.089Z,25.91797
2023-05-10T01:36:32.079Z,25.83008
2023-05-10T01:37:02.080Z,25.9707
2023-05-10T01:37:32.077Z,25.28516
2023-05-10T01:38:02.085Z,25.43945
2023-05-10T01:38:32.077Z,25.30859
2023-05-10T01:39:02.078Z,25.93945
2023-05-10T01:39:32.082Z,25.99414
2023-05-10T01:40:02.079Z,25.54785
2023-05-10T01:40:32.078Z,25.57129
2023-05-10T01:41:02.085Z,26.14258
2023-05-10T01:41:32.074Z,25.15234
2023-05-10T01:42:02.089Z,25.4707
2023-05-10T01:42:32.073Z,25.60254
2023-05-10T01:43:02.074Z,25.5918
2023-05-10T01:43:32.084Z,25.44824
2023-05-10T01:44:02.082Z,25.64551
2023-05-10T01:44:32.079Z,25.51758
2023-05-10T01:45:02.084Z,24.61621
2023-05-10T01:45:32.074Z,24.95703
2023-05-10T01:46:02.103Z,25.55371
2023-05-10T01:46:32.106Z,25.39746
2023-05-10T01:47:02.202Z,24.6875
2023-05-10T01:47:32.131Z,24.74316
2023-05-10T01:48:02.124Z,24.85156
2023-05-10T01:48:32.073Z,25.29688
2023-05-10T01:49:02.084Z,25.63184
2023-05-10T01:49:32.077Z,25.69824
2023-05-10T01:50:02.074Z,24.94629
2023-05-10T01:50:32.079Z,24.42871
2023-05-10T01:51:02.081Z,24.43555
2023-05-10T01:51:32.073Z,24.53906
2023-05-10T01:52:02.078Z,24.50488
2023-05-10T01:52:32.075Z,25.35645
2023-05-10T01:53:02.093Z,24.67969
2023-05-10T01:53:32.077Z,24.59668
2023-05-10T01:54:02.091Z,24.43848
2023-05-10T01:54:32.085Z,24.0918
2023-05-10T01:55:02.083Z,24.25977
2023-05-10T01:55:32.075Z,24.33691
2023-05-10T01:56:02.082Z,24.3584
2023-05-10T01:56:32.075Z,24.53223
2023-05-10T01:57:02.081Z,24.6416
2023-05-10T01:57:32.072Z,24.75098
2023-05-10T01:58:02.106Z,24.45605
2023-05-10T01:58:32.078Z,24.66113
2023-05-10T01:59:02.081Z,24.75586
2023-05-10T01:59:32.086Z,24.72266
2023-05-10T02:00:02.083Z,24.91895
2023-05-10T02:00:32.111Z,23.87305
2023-05-10T02:01:02.115Z,24.25781
2023-05-10T02:01:32.076Z,23.99707
2023-05-10T02:02:02.081Z,24.00195
2023-05-10T02:02:32.092Z,23.54785
2023-05-10T02:03:02.193Z,24.16211
2023-05-10T02:03:32.136Z,24.55762
2023-05-10T02:04:02.166Z,24.50098
2023-05-10T02:04:32.076Z,24.09766
2023-05-10T02:05:02.083Z,24.13379
2023-05-10T02:05:32.080Z,23.77441
2023-05-10T02:06:02.086Z,23.89648
2023-05-10T02:06:32.099Z,24.23828
2023-05-10T02:07:02.080Z,23.88574
2023-05-10T02:07:32.075Z,24.10449
2023-05-10T02:08:02.084Z,24.03027
2023-05-10T02:08:32.075Z,24.32324
2023-05-10T02:09:02.089Z,24.26758
2023-05-10T02:09:32.077Z,24.36523
2023-05-10T02:10:02.078Z,24.51855
2023-05-10T02:10:32.084Z,24.34375
2023-05-10T02:11:02.088Z,24.4873
2023-05-10T02:11:32.091Z,24.01172
2023-05-10T02:12:02.094Z,23.93848
2023-05-10T02:12:32.125Z,23.9707
2023-05-10T02:13:02.125Z,24.30957
2023-05-10T02:13:32.171Z,24.19922
2023-05-10T02:14:02.091Z,24.50195
2023-05-10T02:14:32.087Z,24.67285
2023-05-10T02:15:02.102Z,24.41797
2023-05-10T02:15:32.084Z,24.27539
2023-05-10T02:16:02.084Z,24.61719
2023-05-10T02:16:32.243Z,24.51074
2023-05-10T02:17:02.191Z,24.1416
2023-05-10T02:17:32.123Z,24.66895
2023-05-10T02:18:02.104Z,24.34082
2023-05-10T02:18:32.080Z,24.44629
2023-05-10T02:19:02.104Z,24.55176
2023-05-10T02:19:32.093Z,24.05859
2023-05-10T02:20:02.078Z,24.21387
2023-05-10T02:20:32.088Z,24.02051
2023-05-10T02:21:02.094Z,23.8457
2023-05-10T02:21:32.087Z,24.29199
2023-05-10T02:22:02.088Z,24.42285
2023-05-10T02:22:32.104Z,24.30176
2023-05-10T02:23:02.085Z,24.28125
2023-05-10T02:23:32.092Z,24.23145
2023-05-10T02:24:02.088Z,24.00586
2023-05-10T02:24:32.083Z,24.08789
2023-05-10T02:25:02.088Z,23.85059
2023-05-10T02:25:32.086Z,24.06152
2023-05-10T02:26:02.083Z,24.05176
2023-05-10T02:26:32.082Z,23.95117
2023-05-10T02:27:02.093Z,24.46094
2023-05-10T02:27:32.090Z,24.50195
2023-05-10T02:28:02.084Z,24.01758
2023-05-10T02:28:32.089Z,24.16992
2023-05-10T02:29:02.090Z,24.34277
2023-05-10T02:29:32.095Z,24.25293
2023-05-10T02:30:02.098Z,24.08105
2023-05-10T02:30:32.083Z,24.09473
2023-05-10T02:31:02.103Z,24.28418
2023-05-10T02:31:32.100Z,23.96875
2023-05-10T02:32:02.103Z,24.31055
2023-05-10T02:32:32.114Z,24.50488
2023-05-10T02:33:02.139Z,24.76074
2023-05-10T02:33:32.086Z,25.51172
2023-05-10T02:34:02.090Z,25.0791
2023-05-10T02:34:32.094Z,25.20801
2023-05-10T02:35:02.088Z,24.96484
2023-05-10T02:35:32.089Z,24.63477
2023-05-10T02:36:02.092Z,24.88477
2023-05-10T02:36:32.090Z,25.02539
2023-05-10T02:37:02.098Z,24.81738
2023-05-10T02:37:32.087Z,25.1123
2023-05-10T02:38:02.091Z,25.3291
2023-05-10T02:38:32.089Z,24.94824
2023-05-10T02:39:02.112Z,24.91797
2023-05-10T02:39:32.087Z,25.03711
2023-05-10T02:40:02.088Z,25.43848
2023-05-10T02:40:32.094Z,25.22656
2023-05-10T02:41:02.088Z,25.09082
2023-05-10T02:41:32.091Z,25.52148
2023-05-10T02:42:02.089Z,25.58105
2023-05-10T02:42:32.087Z,25.18652
2023-05-10T02:43:02.090Z,25.02539
2023-05-10T02:43:32.093Z,24.9834
2023-05-10T02:44:02.102Z,25.54004
2023-05-10T02:44:32.149Z,25.1582
2023-05-10T02:45:02.093Z,25.35449
2023-05-10T02:45:32.117Z,25.14746
2023-05-10T02:46:02.140Z,25.28027
2023-05-10T02:46:32.269Z,25.17188
2023-05-10T02:47:02.094Z,25.22852
2023-05-10T02:47:32.110Z,25.00293
2023-05-10T02:48:02.137Z,24.98633
2023-05-10T02:48:32.092Z,24.87109
2023-05-10T02:49:02.093Z,24.82031
2023-05-10T02:49:32.087Z,24.85742
2023-05-10T02:50:02.103Z,24.79297
2023-05-10T02:50:32.099Z,25.00879
2023-05-10T02:51:02.097Z,25.00488
2023-05-10T02:51:32.102Z,24.83984
2023-05-10T02:52:02.122Z,24.64453
2023-05-10T02:52:32.094Z,24.51563
2023-05-10T02:53:02.108Z,24.62793
2023-05-10T02:53:32.094Z,24.55664
2023-05-10T02:54:02.095Z,24.58398
2023-05-10T02:54:32.093Z,24.30371
2023-05-10T02:55:02.100Z,24.47852
2023-05-10T02:55:32.096Z,24.32813
2023-05-10T02:56:02.093Z,24.20801
2023-05-10T02:56:32.101Z,24.44824
2023-05-10T02:57:02.107Z,24.40234
2023-05-10T02:57:32.103Z,25.00195
2023-05-10T02:58:02.141Z,24.96387
2023-05-10T02:58:32.096Z,25.20508
2023-05-10T02:59:02.095Z,24.89063
2023-05-10T02:59:32.105Z,24.15039
2023-05-10T03:00:02.104Z,24.42969
2023-05-10T03:00:32.099Z,24.43262
2023-05-10T03:01:02.155Z,24.45313
2023-05-10T03:01:32.115Z,24.52148
2023-05-10T03:02:02.102Z,24.13867
2023-05-10T03:02:32.279Z,24.18164
2023-05-10T03:03:02.156Z,24.05371
2023-05-10T03:03:32.097Z,24.05664
2023-05-10T03:04:02.097Z,23.80957
2023-05-10T03:04:32.134Z,23.80273
2023-05-10T03:05:02.159Z,24.04785
2023-05-10T03:05:32.096Z,24.51074
2023-05-10T03:06:02.112Z,24.58691
2023-05-10T03:06:32.103Z,24.04102
2023-05-10T03:07:02.106Z,23.86621
2023-05-10T03:07:32.101Z,23.94043
2023-05-10T03:08:02.117Z,23.89941
2023-05-10T03:08:32.098Z,24.29004
2023-05-10T03:09:02.093Z,24.24219
2023-05-10T03:09:32.099Z,24.21973
2023-05-10T03:10:02.119Z,23.84863
2023-05-10T03:10:32.101Z,24.17871
2023-05-10T03:11:02.106Z,23.92871
2023-05-10T03:11:32.106Z,23.96484
2023-05-10T03:12:02.101Z,23.89258
2023-05-10T03:12:32.099Z,23.36035
2023-05-10T03:13:02.142Z,23.15918
2023-05-10T03:13:32.132Z,23.06738
2023-05-10T03:14:02.111Z,22.81055
2023-05-10T03:14:32.095Z,22.93848
2023-05-10T03:15:02.126Z,22.125
2023-05-10T03:15:32.115Z,21.75195
2023-05-10T03:16:02.144Z,22.00195
2023-05-10T03:16:32.280Z,22.72266
2023-05-10T03:17:02.110Z,22.17578
2023-05-10T03:17:32.128Z,21.81836
2023-05-10T03:18:02.123Z,21.42285
2023-05-10T03:18:32.108Z,21.1123
2023-05-10T03:19:02.101Z,20.95313
2023-05-10T03:19:32.104Z,21.24121
2023-05-10T03:20:02.128Z,21.16504
2023-05-10T03:20:32.103Z,21.00195
2023-05-10T03:21:02.103Z,20.66309
2023-05-10T03:21:32.099Z,20.91016
2023-05-10T03:22:02.120Z,20.62988
2023-05-10T03:22:32.106Z,20.83301
2023-05-10T03:23:02.100Z,20.91797
2023-05-10T03:23:32.102Z,20.85059
2023-05-10T03:24:02.121Z,20.64746
2023-05-10T03:24:32.114Z,20.29883
2023-05-10T03:25:02.108Z,19.70703
2023-05-10T03:25:32.105Z,19.2373
2023-05-10T03:26:02.108Z,19.35156
2023-05-10T03:26:32.106Z,19.34863
2023-05-10T03:27:02.103Z,18.84961
2023-05-10T03:27:32.127Z,17.95508
2023-05-10T03:28:02.115Z,17.86035
2023-05-10T03:28:32.113Z,17.49414
2023-05-10T03:29:02.111Z,16.71094
2023-05-10T03:29:32.110Z,16.71484
2023-05-10T03:30:02.117Z,15.5918
2023-05-10T03:30:32.106Z,16.21484
2023-05-10T03:31:02.119Z,15.83203
2023-05-10T03:31:32.115Z,15.85059
2023-05-10T03:32:02.102Z,15.65625
2023-05-10T03:32:32.114Z,16.29395
2023-05-10T03:33:02.184Z,17.01172
2023-05-10T03:33:32.111Z,17.33594
2023-05-10T03:34:02.108Z,16.71484
2023-05-10T03:34:32.107Z,16.64453
2023-05-10T03:35:02.106Z,17.31738
2023-05-10T03:35:32.114Z,17.11328
2023-05-10T03:36:02.123Z,17.64258
2023-05-10T03:36:32.111Z,17.55469
2023-05-10T03:37:02.108Z,17.91699
2023-05-10T03:37:32.108Z,18.08203
2023-05-10T03:38:02.109Z,17.20215
2023-05-10T03:38:32.112Z,16.70605
2023-05-10T03:39:02.111Z,15.8291
2023-05-10T03:39:32.143Z,15.37988
2023-05-10T03:40:02.104Z,15.81934
2023-05-10T03:40:32.110Z,15.58105
2023-05-10T03:41:02.110Z,14.43359
2023-05-10T03:41:32.121Z,14.38086
2023-05-10T03:42:02.118Z,13.9873
2023-05-10T03:42:32.112Z,13.97168
2023-05-10T03:43:02.109Z,13.9082
2023-05-10T03:43:32.113Z,13.32129
2023-05-10T03:44:02.110Z,13.63477
2023-05-10T03:44:32.110Z,13.28711
2023-05-10T03:45:02.108Z,12.41602
2023-05-10T03:45:32.104Z,12.16309
2023-05-10T03:46:02.109Z,11.45605
2023-05-10T03:46:32.174Z,10.7959
2023-05-10T03:47:02.180Z,10.20117
2023-05-10T03:47:32.119Z,9.458984
2023-05-10T03:48:02.164Z,8.638672
2023-05-10T03:48:32.107Z,8.179688
2023-05-10T03:49:02.114Z,7.930664
2023-05-10T03:49:32.112Z,8.020508
2023-05-10T03:50:02.116Z,7.957031
2023-05-10T03:50:32.111Z,7.802734
2023-05-10T03:51:02.113Z,7.591797
2023-05-10T03:51:32.116Z,7.263672
2023-05-10T03:52:02.145Z,7.697266
2023-05-10T03:52:32.109Z,7.584961
2023-05-10T03:53:02.118Z,7.817383
2023-05-10T03:53:32.113Z,7.010742
2023-05-10T03:54:02.119Z,7.172852
2023-05-10T03:54:32.110Z,7.503906
2023-05-10T03:55:02.113Z,7.813477
2023-05-10T03:55:32.116Z,8.913086
2023-05-10T03:56:02.116Z,8.530273
2023-05-10T03:56:32.111Z,8.342773
2023-05-10T03:57:02.124Z,8.703125
2023-05-10T03:57:32.114Z,9.212891
2023-05-10T03:58:02.112Z,9.600586
2023-05-10T03:58:32.113Z,10.01074
2023-05-10T03:59:02.119Z,10.02441
2023-05-10T03:59:32.123Z,10.04004
2023-05-10T04:00:02.129Z,10.20703
2023-05-10T04:00:32.111Z,10.40527
2023-05-10T04:01:02.118Z,10.40039
2023-05-10T04:01:32.120Z,11.03711
2023-05-10T04:02:02.180Z,11.33105
2023-05-10T04:02:32.206Z,11.75098
2023-05-10T04:03:02.178Z,11.75391
2023-05-10T04:03:32.282Z,11.43262
2023-05-10T04:04:02.186Z,10.42969
2023-05-10T04:04:32.117Z,9.930664
2023-05-10T04:05:02.116Z,9.740234
2023-05-10T04:05:32.126Z,9.170898
2023-05-10T04:06:02.268Z,8.567383
2023-05-10T04:06:32.171Z,8.745117
2023-05-10T04:07:02.120Z,8.854492
2023-05-10T04:07:32.129Z,9.136719
2023-05-10T04:08:02.147Z,8.980469
2023-05-10T04:08:32.113Z,8.855469
2023-05-10T04:09:02.118Z,8.608398
2023-05-10T04:09:32.125Z,8.454102
2023-05-10T04:10:02.134Z,7.976563
2023-05-10T04:10:32.112Z,8.356445
2023-05-10T04:11:02.110Z,8.643555
2023-05-10T04:11:32.120Z,8.053711
2023-05-10T04:12:02.118Z,7.568359
2023-05-10T04:12:32.160Z,7.572266
2023-05-10T04:13:02.277Z,6.966797
2023-05-10T04:13:32.125Z,7.025391
2023-05-10T04:14:02.126Z,6.891602
2023-05-10T04:14:32.151Z,6.59668
2023-05-10T04:15:02.140Z,7.170898
2023-05-10T04:15:32.142Z,8.025391
2023-05-10T04:16:02.130Z,8.051758
2023-05-10T04:16:32.157Z,8.319336
2023-05-10T04:17:02.314Z,8.828125
2023-05-10T04:17:32.172Z,8.387695
2023-05-10T04:18:02.254Z,8.761719
2023-05-10T04:18:32.133Z,9.123047
2023-05-10T04:19:02.131Z,9.388672
2023-05-10T04:19:32.132Z,9.367188
2023-05-10T04:20:02.132Z,9.384766
2023-05-10T04:20:32.120Z,9.370117
2023-05-10T04:21:02.121Z,9.176758
2023-05-10T04:21:32.123Z,8.929688
2023-05-10T04:22:02.145Z,9.712891
2023-05-10T04:22:32.128Z,10.39355
2023-05-10T04:23:02.123Z,10.04785
2023-05-10T04:23:32.131Z,10.42871
2023-05-10T04:24:02.156Z,10.02734
2023-05-10T04:24:32.140Z,9.620117
2023-05-10T04:25:02.129Z,10.0625
2023-05-10T04:25:32.126Z,10.68945
2023-05-10T04:26:02.132Z,10.99805
2023-05-10T04:26:32.125Z,10.83398
2023-05-10T04:27:02.123Z,10.62012
2023-05-10T04:27:32.138Z,10.93945
2023-05-10T04:28:02.135Z,9.977539
2023-05-10T04:28:32.142Z,9.945313
2023-05-10T04:29:02.156Z,9.84668
2023-05-10T04:29:32.176Z,10.03027
2023-05-10T04:30:02.121Z,9.387695
2023-05-10T04:30:32.178Z,9.167969
2023-05-10T04:31:02.224Z,9.313477
2023-05-10T04:31:32.132Z,9.240234
2023-05-10T04:32:02.131Z,8.765625
2023-05-10T04:32:32.196Z,8.419922
2023-05-10T04:33:02.157Z,7.948242
2023-05-10T04:33:32.122Z,7.749023
2023-05-10T04:34:02.146Z,7.914063
2023-05-10T04:34:32.131Z,8.271484
2023-05-10T04:35:02.126Z,8.110352
2023-05-10T04:35:32.132Z,8.791016
2023-05-10T04:36:02.143Z,8.730469
2023-05-10T04:36:32.138Z,8.462891
2023-05-10T04:37:02.117Z,8.212891
2023-05-10T04:37:32.127Z,8.408203
2023-05-10T04:38:02.172Z,8.806641
2023-05-10T04:38:32.128Z,9.033203
2023-05-10T04:39:02.141Z,9.152344
2023-05-10T04:39:32.175Z,8.945313
2023-05-10T04:40:02.159Z,8.978516
2023-05-10T04:40:32.125Z,9.293945
2023-05-10T04:41:02.131Z,9.289063
2023-05-10T04:41:32.127Z,9.740234
2023-05-10T04:42:02.153Z,9.736328
2023-05-10T04:42:32.131Z,9.655273
2023-05-10T04:43:02.122Z,9.31543
2023-05-10T04:43:32.126Z,9.249023
2023-05-10T04:44:02.136Z,9.749023
2023-05-10T04:44:32.137Z,9.700195
2023-05-10T04:45:02.124Z,9.299805
2023-05-10T04:45:32.138Z,9.250977
2023-05-10T04:46:02.162Z,9.479492
2023-05-10T04:46:32.208Z,9.535156
2023-05-10T04:47:02.128Z,9.527344
2023-05-10T04:47:32.147Z,9.801758
2023-05-10T04:48:02.176Z,9.695313
2023-05-10T04:48:32.144Z,9.50293
2023-05-10T04:49:02.141Z,9.711914
2023-05-10T04:49:32.122Z,9.370117
2023-05-10T04:50:02.124Z,9.655273
2023-05-10T04:50:32.124Z,10.06445
2023-05-10T04:51:02.149Z,9.517578
2023-05-10T04:51:32.126Z,9.282227
2023-05-10T04:52:02.127Z,9.226563
2023-05-10T04:52:32.126Z,9.344727
2023-05-10T04:53:02.136Z,9.145508
2023-05-10T04:53:32.133Z,8.932617
2023-05-10T04:54:06.497Z,9.146484
2023-05-10T04:54:34.185Z,10.25391
2023-05-10T04:55:02.130Z,10.38086
2023-05-10T04:55:32.141Z,11.09473
2023-05-10T04:56:02.153Z,11.64941
2023-05-10T04:56:32.142Z,11.50195
2023-05-10T04:57:02.145Z,11.80957
2023-05-10T04:57:32.131Z,12.04785
2023-05-10T04:58:02.159Z,13.01172
2023-05-10T04:58:32.128Z,12.74219
2023-05-10T04:59:02.138Z,13.10156
2023-05-10T04:59:32.135Z,14.2168
2023-05-10T05:00:02.158Z,15.10449
2023-05-10T05:00:32.165Z,14.51953
2023-05-10T05:01:02.154Z,14.64258
2023-05-10T05:01:32.226Z,14.67773
2023-05-10T05:02:02.300Z,14.49023
2023-05-10T05:02:32.252Z,14.73242
2023-05-10T05:03:02.285Z,14.66992
2023-05-10T05:03:32.202Z,14.32031
2023-05-10T05:04:02.212Z,14.30176
2023-05-10T05:04:32.136Z,13.4209
2023-05-10T05:05:02.157Z,14.32715
2023-05-10T05:05:32.131Z,13.27148
2023-05-10T05:06:02.137Z,12.65918
2023-05-10T05:06:32.143Z,12.63965
2023-05-10T05:07:02.137Z,12.86621
2023-05-10T05:07:32.175Z,13.05762
2023-05-10T05:08:02.149Z,13.57715
2023-05-10T05:08:32.139Z,13.5166
2023-05-10T05:09:02.149Z,13.78125
2023-05-10T05:09:32.133Z,14.10547
2023-05-10T05:10:02.156Z,14.31738
2023-05-10T05:10:32.142Z,13.60742
2023-05-10T05:11:02.148Z,13.65332
2023-05-10T05:11:32.153Z,13.85938
2023-05-10T05:12:02.146Z,14.25293
2023-05-10T05:12:32.137Z,13.55078
2023-05-10T05:13:02.209Z,14.4668
2023-05-10T05:13:32.169Z,15.45117
2023-05-10T05:14:02.165Z,14.98535
2023-05-10T05:14:32.140Z,15.03613
2023-05-10T05:15:02.152Z,14.96191
2023-05-10T05:15:32.151Z,15.15723
2023-05-10T05:16:02.160Z,15.26465
2023-05-10T05:16:32.175Z,15.72949
2023-05-10T05:17:02.146Z,15.73926
2023-05-10T05:17:32.164Z,15.28809
2023-05-10T05:18:02.199Z,15.60156
2023-05-10T05:18:32.139Z,15.00879
2023-05-10T05:19:02.147Z,15.32422
2023-05-10T05:19:32.138Z,15.82617
2023-05-10T05:20:02.154Z,14.88477
2023-05-10T05:20:32.142Z,14.35547
2023-05-10T05:21:02.149Z,13.10449
2023-05-10T05:21:32.134Z,11.96973
2023-05-10T05:22:02.136Z,11.59961
2023-05-10T05:22:32.137Z,10.79883
2023-05-10T05:23:02.164Z,9.382813
2023-05-10T05:23:32.140Z,8.938477
2023-05-10T05:24:02.144Z,8.21875
2023-05-10T05:24:32.145Z,8.40918
2023-05-10T05:25:02.156Z,7.751953
2023-05-10T05:25:32.146Z,7.526367
2023-05-10T05:26:02.148Z,7.111328
2023-05-10T05:26:32.145Z,7.740234
2023-05-10T05:27:02.145Z,7.543945
2023-05-10T05:27:32.148Z,7.452148
2023-05-10T05:28:02.163Z,7.392578
2023-05-10T05:28:32.143Z,7.874023
2023-05-10T05:29:02.194Z,8.016602
2023-05-10T05:29:32.145Z,8.262695
2023-05-10T05:30:02.149Z,8.453125
2023-05-10T05:30:32.147Z,8.31543
2023-05-10T05:31:02.166Z,7.825195
2023-05-10T05:31:32.168Z,7.598633
2023-05-10T05:32:02.253Z,7.773438
2023-05-10T05:32:32.166Z,7.520508
2023-05-10T05:33:02.189Z,7.648438
2023-05-10T05:33:32.143Z,7.899414
2023-05-10T05:34:02.151Z,7.5
2023-05-10T05:34:32.148Z,8.084961
2023-05-10T05:35:02.149Z,8.105469
2023-05-10T05:35:32.154Z,8.286133
2023-05-10T05:36:02.141Z,8.55957
2023-05-10T05:36:32.147Z,7.573242
2023-05-10T05:37:02.149Z,7.404297
2023-05-10T05:37:32.178Z,7.418945
2023-05-10T05:38:02.149Z,7.65332
2023-05-10T05:38:32.149Z,7.40332
2023-05-10T05:39:02.152Z,7.392578
2023-05-10T05:39:32.152Z,7.579102
2023-05-10T05:40:02.148Z,7.464844
2023-05-10T05:40:32.152Z,7.282227
2023-05-10T05:41:02.153Z,7.408203
2023-05-10T05:41:32.150Z,7.696289
2023-05-10T05:42:02.156Z,6.928711
2023-05-10T05:42:32.150Z,6.570313
2023-05-10T05:43:02.154Z,5.540039
2023-05-10T05:43:32.147Z,5.847656
2023-05-10T05:44:02.159Z,6.09668
2023-05-10T05:44:32.179Z,5.68457
2023-05-10T05:45:02.187Z,5.133789
2023-05-10T05:45:32.172Z,4.847656
2023-05-10T05:46:02.207Z,5.232422
2023-05-10T05:46:32.149Z,5.28125
2023-05-10T05:47:02.152Z,5.459961
2023-05-10T05:47:32.223Z,4.555664
2023-05-10T05:48:02.231Z,4.607422
2023-05-10T05:48:32.166Z,4.321289
2023-05-10T05:49:02.152Z,4.234375
2023-05-10T05:49:32.152Z,3.666016
2023-05-10T05:50:02.155Z,4.151367
2023-05-10T05:50:32.156Z,4.445313
2023-05-10T05:51:02.193Z,4.489258
2023-05-10T05:51:32.157Z,4.499023
2023-05-10T05:52:02.166Z,4.295898
2023-05-10T05:52:32.148Z,4.829102
2023-05-10T05:53:02.152Z,5.172852